createdAt,value
2023-09-27T00:01:28.322Z,99097.29
2023-09-27T00:04:00.096Z,99097.63
2023-09-27T00:06:31.961Z,99100.92
2023-09-27T00:09:05.480Z,99098.05
2023-09-27T00:11:37.248Z,99098.20
2023-09-27T00:14:09.129Z,99097.21
2023-09-27T00:16:41.089Z,99104.16
2023-09-27T00:19:13.364Z,99103.85
2023-09-27T00:21:45.107Z,99102.13
2023-09-27T00:24:17.179Z,99098.81
2023-09-27T00:26:48.941Z,99105.43
2023-09-27T00:29:21.220Z,99104.34
2023-09-27T00:31:53.271Z,99104.88
2023-09-27T00:34:25.401Z,99108.59
2023-09-27T00:36:57.119Z,99109.91
2023-09-27T00:39:29.045Z,99109.60
2023-09-27T00:42:00.841Z,99106.73
2023-09-27T00:44:32.664Z,99105.21
2023-09-27T00:47:06.150Z,99102.63
2023-09-27T00:49:38.573Z,99105.63
2023-09-27T00:52:10.550Z,99108.91
2023-09-27T00:54:42.946Z,99104.84
2023-09-27T00:57:14.969Z,99104.12
2023-09-27T00:59:47.438Z,99105.21
2023-09-27T01:02:19.998Z,99104.52
2023-09-27T01:04:52.079Z,99107.30
2023-09-27T01:07:24.255Z,99105.89
2023-09-27T01:09:56.729Z,99105.25
2023-09-27T01:12:30.779Z,99104.84
2023-09-27T01:15:03.388Z,99103.63
2023-09-27T01:17:35.387Z,99097.38
2023-09-27T01:20:08.855Z,99101.19
2023-09-27T01:22:41.443Z,99100.85
2023-09-27T01:25:17.319Z,99104.02
2023-09-27T01:27:50.717Z,99104.59
2023-09-27T01:30:22.660Z,99103.02
2023-09-27T01:32:54.828Z,99101.48
2023-09-27T01:35:26.715Z,99100.88
2023-09-27T01:37:58.674Z,99096.95
2023-09-27T01:40:31.778Z,99100.63
2023-09-27T01:43:05.394Z,99100.86
2023-09-27T01:45:37.969Z,99097.07
2023-09-27T01:48:10.419Z,99099.45
2023-09-27T01:50:42.854Z,99098.73
2023-09-27T01:53:14.964Z,99101.77
2023-09-27T01:55:48.716Z,99098.44
2023-09-27T01:58:20.536Z,99098.83
2023-09-27T02:00:52.354Z,99099.11
2023-09-27T02:03:25.365Z,99097.20
2023-09-27T02:05:59.287Z,99096.89
2023-09-27T02:08:31.458Z,99097.30
2023-09-27T02:11:04.093Z,99097.13
2023-09-27T02:13:35.953Z,99096.23
2023-09-27T02:16:08.099Z,99095.95
2023-09-27T02:18:40.361Z,99097.02
2023-09-27T02:21:12.418Z,99097.20
2023-09-27T02:23:44.240Z,99096.59
2023-09-27T02:26:17.092Z,99095.02
2023-09-27T02:28:49.301Z,99093.79
2023-09-27T02:31:21.098Z,99095.42
2023-09-27T02:33:53.950Z,99097.13
2023-09-27T02:36:25.720Z,99097.69
2023-09-27T02:38:57.516Z,99098.45
2023-09-27T02:41:30.806Z,99097.19
2023-09-27T02:44:02.639Z,99093.42
2023-09-27T02:46:34.754Z,99094.66
2023-09-27T02:49:07.012Z,99093.59
2023-09-27T02:51:38.985Z,99090.62
2023-09-27T02:54:11.845Z,99089.29
2023-09-27T02:56:44.719Z,99089.59
2023-09-27T02:59:16.983Z,99093.02
2023-09-27T03:01:49.547Z,99092.03
2023-09-27T03:04:22.168Z,99091.36
2023-09-27T03:06:54.177Z,99092.19
2023-09-27T03:09:26.271Z,99092.74
2023-09-27T03:11:59.191Z,99089.39
2023-09-27T03:14:31.324Z,99095.67
2023-09-27T03:17:04.705Z,99090.23
2023-09-27T03:19:36.624Z,99089.48
2023-09-27T03:22:08.606Z,99086.54
2023-09-27T03:24:40.497Z,99089.89
2023-09-27T03:27:12.278Z,99087.52
2023-09-27T03:29:44.318Z,99088.07
2023-09-27T03:32:16.847Z,99086.33
2023-09-27T03:34:48.771Z,99083.02
2023-09-27T03:37:20.620Z,99081.46
2023-09-27T03:39:53.821Z,99080.02
2023-09-27T03:42:25.717Z,99083.57
2023-09-27T03:44:57.549Z,99083.77
2023-09-27T03:47:31.158Z,99086.96
2023-09-27T03:50:04.152Z,99091.92
2023-09-27T03:52:36.529Z,99095.92
2023-09-27T03:55:10.152Z,99094.20
2023-09-27T03:57:43.428Z,99095.60
2023-09-27T04:00:18.887Z,99097.19
2023-09-27T04:02:51.906Z,99100.91
2023-09-27T04:05:27.602Z,99095.60
2023-09-27T04:08:01.201Z,99097.00
2023-09-27T04:10:35.131Z,99095.87
2023-09-27T04:13:08.050Z,99097.38
2023-09-27T04:15:40.663Z,99098.88
2023-09-27T04:18:12.554Z,99100.14
2023-09-27T04:20:44.864Z,99100.47
2023-09-27T04:23:16.965Z,99100.48
2023-09-27T04:25:48.846Z,99103.61
2023-09-27T04:28:20.641Z,99109.77
2023-09-27T04:30:53.084Z,99105.71
2023-09-27T04:33:25.113Z,99107.52
2023-09-27T04:35:57.485Z,99109.42
2023-09-27T04:38:29.448Z,99108.80
2023-09-27T04:41:02.067Z,99109.38
2023-09-27T04:43:33.982Z,99113.88
2023-09-27T04:46:06.221Z,99111.59
2023-09-27T04:48:37.959Z,99116.84
2023-09-27T04:51:09.949Z,99116.56
2023-09-27T04:53:42.684Z,99119.49
2023-09-27T04:56:14.520Z,99121.58
2023-09-27T04:58:46.461Z,99126.21
2023-09-27T05:01:18.561Z,99127.46
2023-09-27T05:03:50.705Z,99131.55
2023-09-27T05:06:22.896Z,99133.49
2023-09-27T05:08:54.989Z,99133.35
2023-09-27T05:11:26.824Z,99134.88
2023-09-27T05:13:58.551Z,99134.81
2023-09-27T05:16:31.690Z,99134.10
2023-09-27T05:19:03.607Z,99134.15
2023-09-27T05:21:36.137Z,99137.73
2023-09-27T05:24:09.460Z,99135.52
2023-09-27T05:26:41.185Z,99135.35
2023-09-27T05:29:15.142Z,99133.84
2023-09-27T05:31:47.975Z,99132.81
2023-09-27T05:34:19.710Z,99128.98
2023-09-27T05:36:51.595Z,99129.89
2023-09-27T05:39:23.409Z,99131.83
2023-09-27T05:41:55.449Z,99132.25
2023-09-27T05:44:27.475Z,99134.38
2023-09-27T05:47:00.205Z,99134.24
2023-09-27T05:49:32.654Z,99134.30
2023-09-27T05:52:04.803Z,99137.11
2023-09-27T05:54:36.662Z,99140.31
2023-09-27T05:57:08.484Z,99137.92
2023-09-27T05:59:41.630Z,99142.48
2023-09-27T06:02:17.825Z,99144.64
2023-09-27T06:04:50.504Z,99144.79
2023-09-27T06:07:24.193Z,99145.38
2023-09-27T06:09:55.960Z,99149.73
2023-09-27T06:12:27.771Z,99144.75
2023-09-27T06:15:00.010Z,99146.29
2023-09-27T06:17:32.327Z,99146.34
2023-09-27T06:20:09.030Z,99145.61
2023-09-27T06:22:41.679Z,99147.11
2023-09-27T06:25:14.971Z,99150.06
2023-09-27T06:27:49.182Z,99151.11
2023-09-27T06:30:21.735Z,99153.11
2023-09-27T06:32:53.854Z,99156.48
2023-09-27T06:35:26.971Z,99157.58
2023-09-27T06:38:01.701Z,99161.70
2023-09-27T06:40:33.868Z,99164.73
2023-09-27T06:43:07.002Z,99169.30
2023-09-27T06:45:41.538Z,99172.45
2023-09-27T06:48:13.469Z,99173.42
2023-09-27T06:50:48.068Z,99169.58
2023-09-27T06:53:23.719Z,99174.26
2023-09-27T06:55:58.281Z,99175.69
2023-09-27T06:58:31.164Z,99178.34
2023-09-27T07:01:03.176Z,99184.68
2023-09-27T07:03:38.115Z,99182.13
2023-09-27T07:06:10.182Z,99184.02
2023-09-27T07:08:44.842Z,99188.98
2023-09-27T07:11:17.046Z,99191.47
2023-09-27T07:13:49.060Z,99197.92
2023-09-27T07:16:28.051Z,99192.02
2023-09-27T07:19:02.092Z,99195.77
2023-09-27T07:21:34.017Z,99197.23
2023-09-27T07:24:06.685Z,99197.27
2023-09-27T07:26:39.280Z,99194.51
2023-09-27T07:29:13.080Z,99197.19
2023-09-27T07:31:44.866Z,99199.80
2023-09-27T07:34:16.826Z,99203.74
2023-09-27T07:36:48.652Z,99205.25
2023-09-27T07:39:21.594Z,99205.84
2023-09-27T07:41:54.046Z,99205.69
2023-09-27T07:44:27.599Z,99203.59
2023-09-27T07:46:59.944Z,99200.38
2023-09-27T07:49:32.670Z,99196.88
2023-09-27T07:52:05.755Z,99198.90
2023-09-27T07:54:38.603Z,99202.58
2023-09-27T07:57:10.409Z,99205.29
2023-09-27T07:59:42.376Z,99208.54
2023-09-27T08:02:14.764Z,99209.02
2023-09-27T08:04:46.610Z,99209.94
2023-09-27T08:07:20.095Z,99219.98
2023-09-27T08:09:54.245Z,99218.32
2023-09-27T08:12:29.319Z,99223.74
2023-09-27T08:15:01.444Z,99221.77
2023-09-27T08:17:34.053Z,99221.52
2023-09-27T08:20:10.775Z,99212.92
2023-09-27T08:22:43.171Z,99197.20
2023-09-27T08:25:17.009Z,99215.30
2023-09-27T08:27:51.871Z,99198.91
2023-09-27T08:30:24.380Z,99195.37
2023-09-27T08:32:56.225Z,99204.14
2023-09-27T08:35:28.604Z,99202.17
2023-09-27T08:38:00.951Z,99191.60
2023-09-27T08:40:33.312Z,99174.83
2023-09-27T08:43:06.238Z,99194.13
2023-09-27T08:45:40.191Z,99195.30
2023-09-27T08:48:19.541Z,99182.00
2023-09-27T08:50:52.630Z,99158.17
2023-09-27T08:53:25.554Z,99165.58
2023-09-27T08:55:58.813Z,99164.75
2023-09-27T08:58:30.954Z,99162.29
2023-09-27T09:01:03.609Z,99169.75
2023-09-27T09:03:36.323Z,99173.41
2023-09-27T09:06:12.364Z,99155.48
2023-09-27T09:08:45.060Z,99149.44
2023-09-27T09:11:19.726Z,99155.88
2023-09-27T09:14:05.736Z,99153.58
2023-09-27T09:16:41.549Z,99150.32
2023-09-27T09:19:37.520Z,99132.30
2023-09-27T09:22:15.689Z,99126.64
2023-09-27T09:24:47.533Z,99123.91
2023-09-27T09:27:19.697Z,99107.97
2023-09-27T09:29:55.278Z,99118.86
2023-09-27T09:32:30.602Z,99111.52
2023-09-27T09:35:03.667Z,99091.23
2023-09-27T09:37:36.495Z,99058.05
2023-09-27T09:40:16.155Z,99054.31
2023-09-27T09:42:52.351Z,99052.39
2023-09-27T09:45:25.276Z,99030.34
2023-09-27T09:47:58.839Z,99017.27
2023-09-27T09:50:31.196Z,99025.79
2023-09-27T09:53:03.262Z,99020.60
2023-09-27T09:56:05.102Z,99012.20
2023-09-27T09:58:36.138Z,99019.52
2023-09-27T10:01:07.609Z,99027.70
2023-09-27T10:03:44.492Z,99024.06
2023-09-27T10:06:20.803Z,99028.07
2023-09-27T10:08:56.897Z,99029.21
2023-09-27T10:11:29.437Z,99031.75
2023-09-27T10:14:03.930Z,99035.43
2023-09-27T10:16:36.272Z,99026.77
2023-09-27T10:19:08.479Z,99026.42
2023-09-27T10:22:07.115Z,99023.64
2023-09-27T10:24:43.529Z,99021.71
2023-09-27T10:27:15.880Z,99019.51
2023-09-27T10:30:01.467Z,99029.64
2023-09-27T10:32:33.483Z,99041.02
2023-09-27T10:35:23.191Z,99047.98
2023-09-27T10:38:07.716Z,99033.83
2023-09-27T10:40:47.282Z,99039.40
2023-09-27T10:43:42.234Z,99039.98
2023-09-27T10:46:15.035Z,99039.46
2023-09-27T10:48:56.200Z,99041.45
2023-09-27T10:51:28.374Z,99046.45
2023-09-27T10:54:00.247Z,99038.77
2023-09-27T10:56:32.087Z,99040.26
2023-09-27T10:59:04.508Z,99039.56
2023-09-27T11:01:36.970Z,99043.65
2023-09-27T11:04:13.418Z,99041.13
2023-09-27T11:06:47.974Z,99033.91
2023-09-27T11:09:21.406Z,99037.23
2023-09-27T11:11:55.383Z,99030.29
2023-09-27T11:14:34.652Z,99024.15
2023-09-27T11:17:23.486Z,99013.40
2023-09-27T11:19:56.095Z,99012.95
2023-09-27T11:22:31.569Z,99015.30
2023-09-27T11:25:04.105Z,99012.48
2023-09-27T11:27:35.943Z,99006.16
2023-09-27T11:30:11.053Z,99005.63
2023-09-27T11:32:53.645Z,99011.38
2023-09-27T11:35:27.777Z,99011.90
2023-09-27T11:38:14.495Z,99014.11
2023-09-27T11:40:49.814Z,99012.20
2023-09-27T11:43:22.267Z,99015.45
2023-09-27T11:45:54.021Z,99004.21
2023-09-27T11:48:36.250Z,98990.73
2023-09-27T11:51:08.425Z,98989.73
2023-09-27T11:53:40.426Z,98982.48
2023-09-27T11:56:12.521Z,98993.41
2023-09-27T11:58:44.432Z,98997.77
2023-09-27T12:01:16.746Z,98991.11
2023-09-27T12:03:50.845Z,98983.80
2023-09-27T12:06:26.422Z,98992.02
2023-09-27T12:08:59.679Z,98985.19
2023-09-27T12:11:33.040Z,98983.45
2023-09-27T12:14:06.333Z,98984.95
2023-09-27T12:16:38.341Z,98982.69
2023-09-27T12:19:10.751Z,98968.95
2023-09-27T12:21:42.719Z,98955.81
2023-09-27T12:24:14.490Z,98941.50
2023-09-27T12:26:46.276Z,98950.08
2023-09-27T12:29:18.027Z,98952.48
2023-09-27T12:31:49.900Z,98945.34
2023-09-27T12:34:21.844Z,98929.20
2023-09-27T12:36:54.019Z,98919.91
2023-09-27T12:39:25.830Z,98918.74
2023-09-27T12:42:01.251Z,98920.58
2023-09-27T12:44:34.099Z,98922.83
2023-09-27T12:47:06.041Z,98910.52
2023-09-27T12:49:37.890Z,98914.98
2023-09-27T12:52:09.963Z,98915.48
2023-09-27T12:54:41.793Z,98912.30
2023-09-27T12:57:14.055Z,98903.13
2023-09-27T12:59:45.828Z,98897.21
2023-09-27T13:02:17.800Z,98891.47
2023-09-27T13:04:50.181Z,98888.31
2023-09-27T13:07:22.027Z,98881.92
2023-09-27T13:09:55.201Z,98878.67
2023-09-27T13:12:27.124Z,98881.98
2023-09-27T13:14:58.980Z,98866.77
2023-09-27T13:17:31.823Z,98869.05
2023-09-27T13:20:08.138Z,98857.39
2023-09-27T13:22:41.015Z,98857.63
2023-09-27T13:25:13.393Z,98865.55
2023-09-27T13:27:45.900Z,98855.32
2023-09-27T13:30:33.053Z,98865.60
2023-09-27T13:33:07.746Z,98872.59
2023-09-27T13:35:39.761Z,98854.89
2023-09-27T13:38:12.613Z,98841.92
2023-09-27T13:40:45.250Z,98830.20
2023-09-27T13:43:17.202Z,98817.00
2023-09-27T13:45:49.634Z,98809.27
2023-09-27T13:48:21.595Z,98809.95
2023-09-27T13:50:53.588Z,98807.08
2023-09-27T13:53:25.691Z,98805.83
2023-09-27T13:55:57.561Z,98804.02
2023-09-27T13:58:29.355Z,98803.87
2023-09-27T14:01:01.172Z,98781.39
2023-09-27T14:03:33.295Z,98779.20
2023-09-27T14:06:06.505Z,98775.59
2023-09-27T14:08:38.385Z,98777.13
2023-09-27T14:11:15.539Z,98774.52
2023-09-27T14:13:48.510Z,98759.29
2023-09-27T14:16:21.633Z,98772.99
2023-09-27T14:18:54.200Z,98777.69
2023-09-27T14:21:26.389Z,98770.70
2023-09-27T14:23:58.228Z,98773.03
2023-09-27T14:26:30.031Z,98784.54
2023-09-27T14:29:01.799Z,98787.86
2023-09-27T14:31:34.406Z,98781.89
2023-09-27T14:34:06.358Z,98772.59
2023-09-27T14:36:38.556Z,98769.41
2023-09-27T14:39:14.401Z,98764.13
2023-09-27T14:41:47.651Z,98759.98
2023-09-27T14:44:19.390Z,98758.61
2023-09-27T14:46:51.956Z,98769.05
2023-09-27T14:49:24.764Z,98771.91
2023-09-27T14:51:56.616Z,98770.02
2023-09-27T14:54:28.361Z,98780.44
2023-09-27T14:57:00.138Z,98785.52
2023-09-27T14:59:31.914Z,98788.23
2023-09-27T15:02:03.807Z,98789.85
2023-09-27T15:04:35.715Z,98794.02
2023-09-27T15:07:07.825Z,98797.63
2023-09-27T15:09:39.556Z,98807.63
2023-09-27T15:12:11.346Z,98816.92
2023-09-27T15:14:43.099Z,98823.45
2023-09-27T15:17:18.311Z,98841.64
2023-09-27T15:19:50.554Z,98851.58
2023-09-27T15:22:22.471Z,98865.13
2023-09-27T15:24:54.226Z,98872.79
2023-09-27T15:27:25.960Z,98885.93
2023-09-27T15:29:57.886Z,98897.21
2023-09-27T15:32:30.468Z,98907.64
2023-09-27T15:35:02.394Z,98916.45
2023-09-27T15:37:34.195Z,98927.71
2023-09-27T15:40:07.383Z,98931.08
2023-09-27T15:42:39.468Z,98936.71
2023-09-27T15:45:13.093Z,98943.69
2023-09-27T15:47:45.002Z,98947.25
2023-09-27T15:50:16.931Z,98949.97
2023-09-27T15:52:49.562Z,98949.73
2023-09-27T15:55:21.516Z,98952.92
2023-09-27T15:57:54.420Z,98956.77
2023-09-27T16:00:27.185Z,98962.19
2023-09-27T16:02:59.773Z,98965.80
2023-09-27T16:05:32.687Z,98965.61
2023-09-27T16:08:04.689Z,98964.09
2023-09-27T16:10:39.636Z,98966.92
2023-09-27T16:13:23.378Z,98972.80
2023-09-27T16:15:55.693Z,98976.25
2023-09-27T16:18:27.550Z,98976.59
2023-09-27T16:20:59.420Z,98978.52
2023-09-27T16:23:31.275Z,98981.67
2023-09-27T16:26:03.001Z,98984.05
2023-09-27T16:28:35.060Z,98984.71
2023-09-27T16:31:11.974Z,98985.30
2023-09-27T16:33:47.807Z,98983.70
2023-09-27T16:36:22.727Z,98983.83
2023-09-27T16:38:54.446Z,98988.29
2023-09-27T16:41:26.802Z,98987.95
2023-09-27T16:43:58.683Z,98992.84
2023-09-27T16:46:30.663Z,98993.52
2023-09-27T16:49:02.446Z,98992.46
2023-09-27T16:51:34.225Z,98994.34
2023-09-27T16:54:06.266Z,98994.23
2023-09-27T16:56:37.981Z,98993.23
2023-09-27T16:59:09.993Z,98989.69
2023-09-27T17:01:41.891Z,98991.30
2023-09-27T17:04:14.054Z,98989.86
2023-09-27T17:06:46.466Z,98990.86
2023-09-27T17:09:18.221Z,98989.48
2023-09-27T17:11:49.971Z,98986.11
2023-09-27T17:14:21.718Z,98986.92
2023-09-27T17:16:53.483Z,98993.48
2023-09-27T17:19:28.618Z,98994.69
2023-09-27T17:22:01.038Z,98992.16
2023-09-27T17:24:32.906Z,98990.55
2023-09-27T17:27:04.713Z,98986.27
2023-09-27T17:29:36.728Z,98983.04
2023-09-27T17:32:08.611Z,98983.58
2023-09-27T17:34:40.601Z,98979.41
2023-09-27T17:37:12.397Z,98978.77
2023-09-27T17:39:44.536Z,98975.85
2023-09-27T17:42:16.535Z,98973.20
2023-09-27T17:44:49.330Z,98974.65
2023-09-27T17:47:21.074Z,98976.66
2023-09-27T17:50:00.503Z,98976.69
2023-09-27T17:52:32.455Z,98972.14
2023-09-27T17:55:05.219Z,98976.29
2023-09-27T17:57:37.260Z,98969.85
2023-09-27T18:00:10.943Z,98972.57
2023-09-27T18:02:42.820Z,98979.25
2023-09-27T18:05:14.696Z,98976.52
2023-09-27T18:07:46.617Z,98977.41
2023-09-27T18:10:18.794Z,98979.74
2023-09-27T18:12:50.818Z,98980.88
2023-09-27T18:15:28.438Z,98986.45
2023-09-27T18:18:00.573Z,98987.36
2023-09-27T18:20:32.605Z,98991.40
2023-09-27T18:23:04.701Z,98987.56
2023-09-27T18:25:37.186Z,98986.98
2023-09-27T18:28:09.372Z,98987.84
2023-09-27T18:30:41.142Z,98986.48
2023-09-27T18:33:13.238Z,98988.37
2023-09-27T18:35:45.431Z,98988.61
2023-09-27T18:38:17.209Z,98985.64
2023-09-27T18:40:49.344Z,98985.46
2023-09-27T18:43:21.341Z,98987.14
2023-09-27T18:45:53.209Z,98987.70
2023-09-27T18:48:25.167Z,98986.24
2023-09-27T18:50:57.856Z,98987.55
2023-09-27T18:53:29.698Z,98989.06
2023-09-27T18:56:02.071Z,98987.27
2023-09-27T18:58:34.455Z,98988.96
2023-09-27T19:01:06.585Z,98986.36
2023-09-27T19:03:38.586Z,98985.88
2023-09-27T19:06:15.538Z,98988.30
2023-09-27T19:08:47.599Z,98987.06
2023-09-27T19:11:23.464Z,98986.55
2023-09-27T19:13:57.554Z,98982.86
2023-09-27T19:16:31.984Z,98979.00
2023-09-27T19:19:04.136Z,98978.71
2023-09-27T19:21:36.212Z,98979.63
2023-09-27T19:24:13.946Z,98976.39
2023-09-27T19:26:46.782Z,98977.69
2023-09-27T19:29:24.280Z,98975.95
2023-09-27T19:31:56.231Z,98972.98
2023-09-27T19:34:29.167Z,98970.20
2023-09-27T19:37:01.548Z,98970.84
2023-09-27T19:39:34.274Z,98968.18
2023-09-27T19:42:07.567Z,98967.27
2023-09-27T19:44:40.156Z,98967.95
2023-09-27T19:47:11.944Z,98962.57
2023-09-27T19:49:43.816Z,98962.52
2023-09-27T19:52:15.699Z,98961.23
2023-09-27T19:54:47.560Z,98959.02
2023-09-27T19:57:19.459Z,98955.65
2023-09-27T19:59:51.422Z,98957.63
2023-09-27T20:02:24.715Z,98958.13
2023-09-27T20:04:56.736Z,98960.20
2023-09-27T20:07:28.635Z,98957.70
2023-09-27T20:10:00.445Z,98952.94
2023-09-27T20:12:32.467Z,98958.69
2023-09-27T20:15:04.817Z,98956.95
2023-09-27T20:17:36.635Z,98948.26
2023-09-27T20:20:11.014Z,98947.95
2023-09-27T20:22:43.101Z,98949.26
2023-09-27T20:25:15.088Z,98946.92
2023-09-27T20:27:47.784Z,98946.72
2023-09-27T20:30:19.984Z,98950.03
2023-09-27T20:32:51.831Z,98945.77
2023-09-27T20:35:23.582Z,98948.24
2023-09-27T20:37:55.434Z,98947.66
2023-09-27T20:40:27.648Z,98947.27
2023-09-27T20:43:08.538Z,98948.59
2023-09-27T20:45:40.870Z,98948.77
2023-09-27T20:48:15.357Z,98949.40
2023-09-27T20:50:49.504Z,98947.15
2023-09-27T20:53:21.288Z,98947.80
2023-09-27T20:55:55.015Z,98944.70
2023-09-27T20:58:26.891Z,98945.18
2023-09-27T21:01:01.548Z,98947.02
2023-09-27T21:03:33.690Z,98949.63
2023-09-27T21:06:06.088Z,98948.25
2023-09-27T21:08:38.318Z,98947.48
2023-09-27T21:11:10.123Z,98948.48
2023-09-27T21:13:42.017Z,98945.16
2023-09-27T21:16:14.254Z,98946.30
2023-09-27T21:18:46.093Z,98942.80
2023-09-27T21:21:17.945Z,98943.23
2023-09-27T21:23:50.067Z,98938.94
2023-09-27T21:26:22.185Z,98938.52
2023-09-27T21:28:54.126Z,98938.27
2023-09-27T21:31:25.972Z,98942.11
2023-09-27T21:33:57.852Z,98938.89
2023-09-27T21:36:29.939Z,98936.67
2023-09-27T21:39:01.690Z,98936.45
2023-09-27T21:41:34.497Z,98935.14
2023-09-27T21:44:07.318Z,98930.59
2023-09-27T21:46:39.152Z,98930.97
2023-09-27T21:49:10.986Z,98922.30
2023-09-27T21:51:42.741Z,98921.69
2023-09-27T21:54:14.911Z,98918.89
2023-09-27T21:56:47.179Z,98918.24
2023-09-27T21:59:19.046Z,98920.53
2023-09-27T22:01:51.150Z,98919.77
2023-09-27T22:04:22.982Z,98919.77
2023-09-27T22:06:54.701Z,98918.70
2023-09-27T22:09:27.917Z,98918.17
2023-09-27T22:11:59.830Z,98919.89
2023-09-27T22:14:31.783Z,98914.92
2023-09-27T22:17:09.394Z,98912.01
2023-09-27T22:19:41.511Z,98912.77
2023-09-27T22:22:21.433Z,98913.63
2023-09-27T22:24:53.832Z,98915.11
2023-09-27T22:27:27.906Z,98910.77
2023-09-27T22:30:00.283Z,98904.86
2023-09-27T22:32:32.696Z,98903.93
2023-09-27T22:35:20.734Z,98900.42
2023-09-27T22:37:53.495Z,98897.39
2023-09-27T22:40:25.910Z,98898.45
2023-09-27T22:42:57.713Z,98897.77
2023-09-27T22:45:36.484Z,98897.45
2023-09-27T22:48:14.200Z,98895.27
2023-09-27T22:50:48.896Z,98894.69
2023-09-27T22:53:22.471Z,98896.98
2023-09-27T22:55:59.322Z,98896.55
2023-09-27T22:58:34.022Z,98899.25
2023-09-27T23:04:24.195Z,98897.83
2023-09-27T23:07:02.572Z,98897.22
2023-09-27T23:09:38.277Z,98894.41
2023-09-27T23:12:19.673Z,98894.52
2023-09-27T23:15:05.993Z,98893.63
2023-09-27T23:18:01.148Z,98892.77
2023-09-27T23:20:33.437Z,98889.49
2023-09-27T23:23:13.355Z,98886.48
2023-09-27T23:25:55.614Z,98880.23
2023-09-27T23:28:40.778Z,98881.17
2023-09-27T23:31:13.235Z,98880.09
2023-09-27T23:33:45.634Z,98877.20
2023-09-27T23:36:25.947Z,98880.77
2023-09-27T23:38:59.120Z,98880.45
2023-09-27T23:41:32.051Z,98876.88
2023-09-27T23:44:06.239Z,98876.13
2023-09-27T23:46:41.232Z,98877.55
2023-09-27T23:49:17.407Z,98872.33
2023-09-27T23:51:49.639Z,98873.54
2023-09-27T23:54:22.301Z,98871.64
2023-09-27T23:57:00.186Z,98871.73
2023-09-27T23:59:32.956Z,98871.93
